Time;durP1;ratioP1;P1;durP2;ratioP2;P2;SDS_P1;SDS_P2;PMS_P1;PMS_P2;Temp;Humidity;BMP_temperature;BMP_pressure;BME280_temperature;BME280_humidity;BME280_pressure;Samples;Min_cycle;Max_cycle;Signal;HPM_P1;HPM_P2
2022/10/21 00:00:14;;;;;;;;;3.75;3.75;;;;;;;;5097371;27;47626;-73
2022/10/21 00:02:39;;;;;;;;;2.50;2.50;;;;;;;;5079355;27;45249;-74
2022/10/21 00:05:04;;;;;;;;;3.00;3.00;;;;;;;;5079222;28;45376;-73
2022/10/21 00:07:30;;;;;;;;;2.00;2.00;;;;;;;;5116762;27;45559;-74
2022/10/21 00:09:55;;;;;;;;;3.00;3.00;;;;;;;;5120384;27;46177;-74
2022/10/21 00:12:20;;;;;;;;;3.50;3.50;;;;;;;;5120663;27;45191;-75
2022/10/21 00:14:45;;;;;;;;;1.00;1.00;;;;;;;;5120493;27;45427;-74
2022/10/21 00:17:11;;;;;;;;;3.75;3.75;;;;;;;;5118779;27;45310;-73
2022/10/21 00:19:38;;;;;;;;;2.25;2.25;;;;;;;;5117692;27;46385;-70
2022/10/21 00:22:04;;;;;;;;;4.00;4.00;;;;;;;;5117821;27;45726;-69
2022/10/21 00:24:29;;;;;;;;;3.25;3.25;;;;;;;;5120526;27;45660;-69
2022/10/21 00:26:55;;;;;;;;;4.50;4.50;;;;;;;;5123655;27;45444;-72
2022/10/21 00:29:20;;;;;;;;;3.00;3.00;;;;;;;;5119888;27;45880;-72
2022/10/21 00:31:45;;;;;;;;;12.00;12.00;;;;;;;;5122418;27;45482;-68
2022/10/21 00:34:10;;;;;;;;;2.00;2.00;;;;;;;;5124998;27;45321;-73
2022/10/21 00:36:35;;;;;;;;;3.75;3.75;;;;;;;;5119797;27;45251;-75
2022/10/21 00:39:01;;;;;;;;;3.00;3.00;;;;;;;;5118667;27;46491;-75
2022/10/21 00:41:26;;;;;;;;;4.50;4.50;;;;;;;;5120156;27;45378;-75
2022/10/21 00:43:52;;;;;;;;;3.25;3.25;;;;;;;;5121640;27;45405;-75
2022/10/21 00:46:17;;;;;;;;;4.00;4.00;;;;;;;;5120067;27;45459;-73
2022/10/21 00:48:48;;;;;;;;;3.00;3.00;;;;;;;;5119974;27;45623;-71
2022/10/21 00:51:15;;;;;;;;;5.00;5.00;;;;;;;;5119181;27;45283;-68
2022/10/21 00:53:42;;;;;;;;;3.00;3.00;;;;;;;;5117505;27;45316;-72
2022/10/21 00:56:23;;;;;;;;;3.25;3.25;;;;;;;;5119089;27;45364;-66
2022/10/21 00:58:49;;;;;;;;;4.00;4.00;;;;;;;;5117072;27;46464;-70
2022/10/21 01:01:14;;;;;;;;;3.00;3.00;;;;;;;;5118307;27;45450;-67
2022/10/21 01:03:39;;;;;;;;;4.00;4.00;;;;;;;;5118512;27;45300;-74
2022/10/21 01:06:07;;;;;;;;;5.00;5.00;;;;;;;;5118884;27;45470;-72
2022/10/21 01:08:33;;;;;;;;;2.00;2.00;;;;;;;;5118577;27;46304;-72
2022/10/21 01:10:59;;;;;;;;;2.75;2.75;;;;;;;;5116643;27;45329;-70
2022/10/21 01:13:27;;;;;;;;;2.00;2.00;;;;;;;;5118569;27;45250;-72
2022/10/21 01:16:07;;;;;;;;;4.00;3.50;;;;;;;;5118776;27;45413;-75
2022/10/21 01:18:39;;;;;;;;;4.00;4.00;;;;;;;;5117001;27;48156;-74
2022/10/21 01:21:19;;;;;;;;;2.75;2.75;;;;;;;;5118236;27;45401;-74
2022/10/21 01:24:02;;;;;;;;;5.50;5.50;;;;;;;;5118938;27;45391;-71
2022/10/21 01:26:46;;;;;;;;;4.50;4.50;;;;;;;;5118920;27;45269;-72
2022/10/21 01:29:26;;;;;;;;;5.00;5.00;;;;;;;;5119039;27;45334;-70
2022/10/21 01:31:54;;;;;;;;;4.00;4.00;;;;;;;;5119386;27;45364;-68
2022/10/21 01:34:25;;;;;;;;;5.50;5.50;;;;;;;;5118313;27;45331;-68
2022/10/21 01:37:03;;;;;;;;;5.00;5.00;;;;;;;;5120143;27;45597;-71
2022/10/21 01:39:36;;;;;;;;;4.25;4.00;;;;;;;;5118432;27;45408;-69
2022/10/21 01:42:02;;;;;;;;;3.75;3.75;;;;;;;;5118666;27;45259;-70
2022/10/21 01:44:40;;;;;;;;;5.00;5.00;;;;;;;;5118231;27;45458;-69
2022/10/21 01:47:16;;;;;;;;;5.50;5.50;;;;;;;;5120554;27;45322;-75
2022/10/21 01:49:48;;;;;;;;;4.50;4.50;;;;;;;;5121199;27;46491;-70
2022/10/21 01:52:14;;;;;;;;;3.00;3.00;;;;;;;;5119062;27;45438;-69
2022/10/21 01:54:42;;;;;;;;;4.75;4.75;;;;;;;;5117051;27;45330;-71
2022/10/21 01:57:08;;;;;;;;;3.00;3.00;;;;;;;;5117611;27;45579;-72
2022/10/21 01:59:34;;;;;;;;;4.25;4.25;;;;;;;;5116158;27;47337;-70
2022/10/21 02:02:01;;;;;;;;;3.25;3.25;;;;;;;;5118056;27;45372;-76
2022/10/21 02:04:28;;;;;;;;;4.75;4.75;;;;;;;;5119000;27;45431;-76
2022/10/21 02:06:53;;;;;;;;;3.50;3.50;;;;;;;;5120409;27;45262;-71
2022/10/21 02:09:18;;;;;;;;;6.00;6.00;;;;;;;;5121394;27;45987;-72
2022/10/21 02:11:46;;;;;;;;;4.50;4.50;;;;;;;;5121632;27;45443;-74
2022/10/21 02:14:18;;;;;;;;;4.00;4.00;;;;;;;;5122837;27;45239;-69
2022/10/21 02:16:44;;;;;;;;;4.50;4.50;;;;;;;;5121900;27;45456;-74
2022/10/21 02:19:12;;;;;;;;;4.00;4.00;;;;;;;;5119361;27;45403;-69
2022/10/21 02:21:37;;;;;;;;;3.33;3.33;;;;;;;;5118008;27;45234;-71
2022/10/21 02:24:12;;;;;;;;;3.00;3.00;;;;;;;;5117652;27;45221;-68
2022/10/21 02:26:37;;;;;;;;;2.75;2.75;;;;;;;;5117757;27;45189;-73
2022/10/21 02:29:02;;;;;;;;;2.50;2.50;;;;;;;;5117102;27;45230;-71
2022/10/21 02:31:46;;;;;;;;;3.25;3.25;;;;;;;;5117257;27;45282;-72
2022/10/21 02:34:29;;;;;;;;;3.00;3.00;;;;;;;;5116723;27;45314;-69
2022/10/21 02:37:09;;;;;;;;;3.00;3.00;;;;;;;;5116814;27;45403;-68
2022/10/21 02:39:50;;;;;;;;;4.00;4.00;;;;;;;;5116459;27;46101;-70
2022/10/21 02:42:18;;;;;;;;;5.50;5.50;;;;;;;;5116861;27;45449;-67
2022/10/21 02:44:44;;;;;;;;;3.00;3.00;;;;;;;;5117110;27;45415;-67
2022/10/21 02:47:09;;;;;;;;;3.00;3.00;;;;;;;;5117160;27;45283;-73
2022/10/21 02:49:34;;;;;;;;;4.00;4.00;;;;;;;;5115746;27;45956;-70
2022/10/21 02:51:59;;;;;;;;;4.50;4.50;;;;;;;;5117643;27;45405;-70
2022/10/21 02:54:24;;;;;;;;;7.75;7.75;;;;;;;;5120561;27;45198;-70
2022/10/21 02:56:49;;;;;;;;;5.00;4.00;;;;;;;;5119862;27;45288;-73
2022/10/21 02:59:15;;;;;;;;;3.00;3.00;;;;;;;;5120617;27;46097;-72
2022/10/21 03:01:40;;;;;;;;;4.00;4.00;;;;;;;;5122976;27;45305;-72
2022/10/21 03:04:05;;;;;;;;;5.75;5.75;;;;;;;;5120493;27;45282;-74
2022/10/21 03:06:30;;;;;;;;;4.00;4.00;;;;;;;;5120993;27;45204;-73
2022/10/21 03:08:55;;;;;;;;;5.50;5.50;;;;;;;;5120738;27;45323;-69
2022/10/21 03:11:21;;;;;;;;;5.00;5.00;;;;;;;;5122254;27;45393;-70
2022/10/21 03:13:46;;;;;;;;;3.00;3.00;;;;;;;;5122848;27;45294;-71
2022/10/21 03:16:11;;;;;;;;;3.50;3.50;;;;;;;;5121299;27;45514;-75
2022/10/21 03:18:36;;;;;;;;;4.00;4.00;;;;;;;;5120944;27;46019;-73
2022/10/21 03:21:01;;;;;;;;;2.75;2.75;;;;;;;;5120724;27;45479;-72
2022/10/21 03:23:27;;;;;;;;;4.00;4.00;;;;;;;;5121241;27;45562;-74
2022/10/21 03:25:52;;;;;;;;;3.00;3.00;;;;;;;;5122444;27;45428;-74
2022/10/21 03:28:17;;;;;;;;;3.00;3.00;;;;;;;;5124847;27;45507;-73
2022/10/21 03:30:42;;;;;;;;;3.00;3.00;;;;;;;;5121827;27;45310;-73
2022/10/21 03:33:07;;;;;;;;;1.75;1.75;;;;;;;;5120580;27;45390;-74
2022/10/21 03:35:32;;;;;;;;;3.00;3.00;;;;;;;;5120738;27;45498;-70
2022/10/21 03:37:58;;;;;;;;;3.25;3.25;;;;;;;;5120083;27;46623;-73
2022/10/21 03:40:23;;;;;;;;;3.00;3.00;;;;;;;;5120016;27;45215;-70
2022/10/21 03:42:49;;;;;;;;;3.00;3.00;;;;;;;;5120178;27;45445;-70
2022/10/21 03:45:14;;;;;;;;;3.00;3.00;;;;;;;;5120147;27;45271;-69
2022/10/21 03:47:39;;;;;;;;;2.50;2.50;;;;;;;;5119779;27;47683;-72
2022/10/21 03:50:06;;;;;;;;;2.75;2.75;;;;;;;;5120462;27;45310;-67
2022/10/21 03:52:31;;;;;;;;;3.75;3.75;;;;;;;;5120302;27;45341;-71
2022/10/21 03:54:56;;;;;;;;;4.00;4.00;;;;;;;;5121587;27;45588;-69
2022/10/21 03:57:21;;;;;;;;;4.00;4.00;;;;;;;;5123963;27;46218;-73
2022/10/21 03:59:46;;;;;;;;;4.50;4.50;;;;;;;;5125276;27;45355;-72
2022/10/21 04:02:12;;;;;;;;;4.25;4.25;;;;;;;;5126422;27;45242;-68
2022/10/21 04:04:37;;;;;;;;;5.75;5.00;;;;;;;;5122091;27;45553;-71
2022/10/21 04:07:02;;;;;;;;;5.00;5.00;;;;;;;;5119893;27;46272;-71
2022/10/21 04:09:27;;;;;;;;;3.25;3.25;;;;;;;;5118003;27;45683;-70
2022/10/21 04:11:52;;;;;;;;;5.00;5.00;;;;;;;;5118726;27;45335;-71
2022/10/21 04:14:18;;;;;;;;;5.00;5.00;;;;;;;;5119696;27;45609;-71
2022/10/21 04:16:44;;;;;;;;;6.00;6.00;;;;;;;;5119220;27;47104;-72
2022/10/21 04:19:13;;;;;;;;;5.50;5.50;;;;;;;;5119005;27;45316;-71
2022/10/21 04:21:39;;;;;;;;;7.50;7.50;;;;;;;;5119112;27;45443;-67
2022/10/21 04:24:04;;;;;;;;;8.25;8.25;;;;;;;;5119221;27;45249;-72
2022/10/21 04:26:29;;;;;;;;;9.25;9.00;;;;;;;;5117552;27;47978;-71
2022/10/21 04:28:54;;;;;;;;;7.00;7.00;;;;;;;;5120012;27;45250;-70
2022/10/21 04:31:19;;;;;;;;;5.00;4.00;;;;;;;;5119454;27;45420;-72
2022/10/21 04:33:45;;;;;;;;;4.50;4.50;;;;;;;;5121499;27;45598;-73
2022/10/21 04:36:10;;;;;;;;;7.00;7.00;;;;;;;;5121381;27;46439;-75
2022/10/21 04:38:35;;;;;;;;;7.25;7.25;;;;;;;;5120173;27;45426;-73
2022/10/21 04:41:01;;;;;;;;;5.50;5.50;;;;;;;;5118698;27;45428;-75
2022/10/21 04:43:27;;;;;;;;;6.00;6.00;;;;;;;;5120588;27;45518;-75
2022/10/21 04:45:53;;;;;;;;;8.00;8.00;;;;;;;;5119331;27;46490;-75
2022/10/21 04:48:19;;;;;;;;;7.00;7.00;;;;;;;;5120098;27;45369;-74
2022/10/21 04:50:46;;;;;;;;;6.75;6.75;;;;;;;;5120738;27;45840;-76
2022/10/21 04:53:11;;;;;;;;;6.50;6.50;;;;;;;;5120730;27;45547;-70
2022/10/21 04:55:39;;;;;;;;;6.00;6.00;;;;;;;;5120505;27;46359;-72
2022/10/21 04:58:05;;;;;;;;;9.25;8.50;;;;;;;;5118332;27;45368;-72
2022/10/21 05:00:30;;;;;;;;;5.50;5.50;;;;;;;;5118692;27;45369;-74
2022/10/21 05:02:55;;;;;;;;;7.00;7.00;;;;;;;;5119097;27;45400;-74
2022/10/21 05:05:21;;;;;;;;;7.00;7.00;;;;;;;;5118539;27;45515;-72
2022/10/21 05:07:46;;;;;;;;;6.50;6.50;;;;;;;;5118736;27;45324;-71
2022/10/21 05:10:11;;;;;;;;;7.50;7.50;;;;;;;;5119034;27;45421;-74
2022/10/21 05:12:36;;;;;;;;;7.50;7.50;;;;;;;;5119363;27;45419;-73
2022/10/21 05:15:01;;;;;;;;;8.25;8.25;;;;;;;;5118729;27;45471;-71
2022/10/21 05:17:26;;;;;;;;;7.25;7.25;;;;;;;;5117717;27;45321;-72
2022/10/21 05:19:52;;;;;;;;;8.00;8.00;;;;;;;;5119880;27;45340;-72
2022/10/21 05:22:17;;;;;;;;;9.50;9.50;;;;;;;;5102435;27;45452;-72
2022/10/21 05:24:42;;;;;;;;;4.75;4.50;;;;;;;;5098014;27;45374;-71
2022/10/21 05:27:07;;;;;;;;;9.00;9.00;;;;;;;;5106198;27;45330;-72
2022/10/21 05:29:33;;;;;;;;;8.50;8.50;;;;;;;;5098599;27;45314;-74
2022/10/21 05:31:58;;;;;;;;;14.25;14.25;;;;;;;;5098967;27;45234;-75
2022/10/21 05:34:23;;;;;;;;;9.75;9.75;;;;;;;;5078794;27;47442;-73
2022/10/21 05:36:48;;;;;;;;;7.50;7.50;;;;;;;;5097011;27;45306;-73
2022/10/21 05:39:13;;;;;;;;;7.25;7.25;;;;;;;;5097064;27;45397;-73
2022/10/21 05:41:39;;;;;;;;;8.00;8.00;;;;;;;;5097154;27;45416;-72
2022/10/21 05:44:04;;;;;;;;;9.00;9.00;;;;;;;;5101490;27;46155;-71
2022/10/21 05:46:29;;;;;;;;;7.75;7.75;;;;;;;;5100528;27;45292;-73
2022/10/21 05:48:54;;;;;;;;;8.00;8.00;;;;;;;;5102563;27;45244;-76
2022/10/21 05:51:25;;;;;;;;;12.50;12.50;;;;;;;;5101561;27;45209;-73
2022/10/21 05:53:50;;;;;;;;;18.75;18.75;;;;;;;;5101630;27;46895;-72
2022/10/21 05:56:15;;;;;;;;;12.00;12.00;;;;;;;;5097097;27;45305;-74
2022/10/21 05:58:40;;;;;;;;;8.00;8.00;;;;;;;;5097577;27;45371;-72
2022/10/21 06:01:05;;;;;;;;;8.50;8.50;;;;;;;;5096356;27;45570;-75
2022/10/21 06:03:32;;;;;;;;;9.75;9.75;;;;;;;;5096249;27;46111;-75
2022/10/21 06:05:58;;;;;;;;;10.00;9.00;;;;;;;;5095934;27;45392;-76
2022/10/21 06:08:23;;;;;;;;;9.75;9.75;;;;;;;;5077934;27;45238;-75
2022/10/21 06:10:48;;;;;;;;;7.00;7.00;;;;;;;;5096257;27;45239;-75
2022/10/21 06:13:13;;;;;;;;;8.75;8.75;;;;;;;;5096011;27;45515;-75
2022/10/21 06:15:38;;;;;;;;;7.00;7.00;;;;;;;;5101471;27;45224;-74
2022/10/21 06:18:04;;;;;;;;;9.00;9.00;;;;;;;;5103105;27;45341;-72
2022/10/21 06:20:29;;;;;;;;;12.00;11.75;;;;;;;;5100414;27;45207;-73
2022/10/21 06:22:54;;;;;;;;;12.75;12.00;;;;;;;;5118400;27;45225;-75
2022/10/21 06:25:20;;;;;;;;;10.50;10.50;;;;;;;;5119883;27;45237;-75
2022/10/21 06:27:45;;;;;;;;;9.50;9.50;;;;;;;;5121970;27;45269;-77
2022/10/21 06:30:11;;;;;;;;;8.75;8.75;;;;;;;;5121678;27;45434;-81
2022/10/21 06:32:36;;;;;;;;;8.00;8.00;;;;;;;;5122220;27;45279;-79
2022/10/21 06:35:01;;;;;;;;;8.25;8.25;;;;;;;;5121663;27;45343;-71
2022/10/21 06:37:26;;;;;;;;;7.50;7.50;;;;;;;;5120706;27;45314;-73
2022/10/21 06:39:51;;;;;;;;;10.00;8.75;;;;;;;;5122138;27;45188;-72
2022/10/21 06:42:17;;;;;;;;;10.00;9.00;;;;;;;;5119813;27;46248;-71
2022/10/21 06:44:42;;;;;;;;;10.00;10.00;;;;;;;;5118262;27;45300;-74
2022/10/21 06:47:07;;;;;;;;;9.75;9.75;;;;;;;;5097028;27;45582;-71
2022/10/21 06:49:33;;;;;;;;;10.75;10.75;;;;;;;;5096477;27;45389;-72
2022/10/21 06:51:58;;;;;;;;;12.50;12.50;;;;;;;;5119385;27;45340;-74
2022/10/21 06:54:23;;;;;;;;;9.00;9.00;;;;;;;;5086962;27;45348;-77
2022/10/21 06:56:48;;;;;;;;;8.75;8.75;;;;;;;;5092530;27;45480;-73
2022/10/21 06:59:14;;;;;;;;;10.00;10.00;;;;;;;;5097819;27;45384;-72
2022/10/21 07:01:39;;;;;;;;;10.00;10.00;;;;;;;;5113750;27;46287;-73
2022/10/21 07:04:04;;;;;;;;;13.00;13.00;;;;;;;;5097715;27;45463;-72
2022/10/21 07:06:30;;;;;;;;;11.50;11.00;;;;;;;;5098598;27;45377;-71
2022/10/21 07:08:55;;;;;;;;;11.75;11.75;;;;;;;;5098627;27;45344;-71
2022/10/21 07:11:20;;;;;;;;;8.00;8.00;;;;;;;;5098338;27;45479;-71
2022/10/21 07:13:45;;;;;;;;;15.00;15.00;;;;;;;;5098705;27;45267;-71
2022/10/21 07:16:30;;;;;;;;;23.50;23.50;;;;;;;;5098745;27;45301;-70
2022/10/21 07:18:56;;;;;;;;;13.50;13.50;;;;;;;;5099398;27;46012;-71
2022/10/21 07:21:22;;;;;;;;;13.00;13.00;;;;;;;;5098048;27;46122;-70
2022/10/21 07:23:50;;;;;;;;;16.00;16.00;;;;;;;;5098807;27;45461;-70
2022/10/21 07:26:15;;;;;;;;;10.50;10.50;;;;;;;;5100020;27;45284;-72
2022/10/21 07:28:42;;;;;;;;;11.25;11.25;;;;;;;;5098673;27;45190;-70
2022/10/21 07:31:07;;;;;;;;;10.75;10.25;;;;;;;;5098658;27;45462;-71
2022/10/21 07:33:33;;;;;;;;;8.00;8.00;;;;;;;;5102239;27;45457;-69
2022/10/21 07:36:03;;;;;;;;;7.75;7.75;;;;;;;;5099520;27;45341;-73
2022/10/21 07:38:28;;;;;;;;;12.00;10.75;;;;;;;;5100976;27;45312;-72
2022/10/21 07:40:53;;;;;;;;;10.75;10.75;;;;;;;;5100536;27;45332;-72
2022/10/21 07:43:18;;;;;;;;;8.00;8.00;;;;;;;;5098742;27;45378;-71
2022/10/21 07:45:43;;;;;;;;;9.00;9.00;;;;;;;;5098998;27;45406;-71
2022/10/21 07:48:09;;;;;;;;;11.00;11.00;;;;;;;;5098211;27;45263;-73
2022/10/21 07:50:35;;;;;;;;;8.50;8.50;;;;;;;;5098326;27;46255;-72
2022/10/21 07:53:01;;;;;;;;;8.00;8.00;;;;;;;;5098358;27;45433;-70
2022/10/21 07:55:26;;;;;;;;;10.75;10.50;;;;;;;;5096669;27;45258;-71
2022/10/21 07:57:51;;;;;;;;;12.50;12.50;;;;;;;;5098061;27;45506;-70
2022/10/21 08:00:17;;;;;;;;;18.50;18.25;;;;;;;;5097426;27;46804;-72
2022/10/21 08:02:42;;;;;;;;;10.25;10.25;;;;;;;;5097946;27;45417;-71
2022/10/21 08:05:07;;;;;;;;;11.00;11.00;;;;;;;;5097382;27;45382;-72
2022/10/21 08:07:33;;;;;;;;;13.50;13.50;;;;;;;;5098080;27;45356;-71
2022/10/21 08:09:58;;;;;;;;;10.00;10.00;;;;;;;;5097953;27;45504;-70
2022/10/21 08:12:24;;;;;;;;;11.75;11.75;;;;;;;;5098109;27;45540;-72
2022/10/21 08:14:49;;;;;;;;;12.00;12.00;;;;;;;;5097878;27;45268;-70
2022/10/21 08:17:14;;;;;;;;;12.00;12.00;;;;;;;;5098674;27;45570;-73
2022/10/21 08:19:40;;;;;;;;;10.00;10.00;;;;;;;;5102503;27;45659;-70
2022/10/21 08:22:05;;;;;;;;;8.25;8.25;;;;;;;;5098576;27;45443;-69
2022/10/21 08:24:31;;;;;;;;;7.50;7.50;;;;;;;;5098118;27;45342;-71
2022/10/21 08:26:56;;;;;;;;;11.00;11.00;;;;;;;;5097730;27;45370;-71
2022/10/21 08:29:21;;;;;;;;;9.25;9.25;;;;;;;;5097244;27;45440;-72
2022/10/21 08:31:46;;;;;;;;;7.50;7.50;;;;;;;;5097208;27;45342;-72
2022/10/21 08:34:12;;;;;;;;;9.50;9.00;;;;;;;;5096627;27;45413;-72
2022/10/21 08:36:37;;;;;;;;;21.25;20.75;;;;;;;;5098246;27;45563;-72
2022/10/21 08:39:03;;;;;;;;;16.50;16.50;;;;;;;;5097612;27;45357;-72
2022/10/21 08:41:28;;;;;;;;;24.25;24.25;;;;;;;;5096896;27;45297;-72
2022/10/21 08:43:57;;;;;;;;;7.00;7.00;;;;;;;;5097121;27;45346;-72
2022/10/21 08:46:25;;;;;;;;;10.25;10.25;;;;;;;;5096000;27;45435;-71
2022/10/21 08:49:09;;;;;;;;;9.50;9.25;;;;;;;;5097105;27;46561;-69
2022/10/21 08:51:39;;;;;;;;;6.25;6.25;;;;;;;;5094834;27;45751;-71
2022/10/21 08:54:11;;;;;;;;;7.25;7.25;;;;;;;;5096962;27;45305;-72
2022/10/21 08:56:36;;;;;;;;;8.75;8.75;;;;;;;;5097694;27;45261;-70
2022/10/21 08:59:01;;;;;;;;;11.00;11.00;;;;;;;;5096866;27;46094;-72
2022/10/21 09:01:26;;;;;;;;;9.50;9.50;;;;;;;;5096577;27;45294;-74
2022/10/21 09:04:02;;;;;;;;;11.25;11.25;;;;;;;;5095832;27;45413;-72
2022/10/21 09:06:30;;;;;;;;;7.25;7.25;;;;;;;;5096118;27;45552;-71
2022/10/21 09:09:14;;;;;;;;;11.75;11.50;;;;;;;;5096842;27;45385;-73
2022/10/21 09:11:53;;;;;;;;;10.50;10.50;;;;;;;;5098520;27;45234;-73
2022/10/21 09:14:24;;;;;;;;;12.75;12.75;;;;;;;;5097333;27;45520;-73
2022/10/21 09:16:57;;;;;;;;;9.50;9.50;;;;;;;;5097860;27;45337;-70
2022/10/21 09:19:25;;;;;;;;;8.00;8.00;;;;;;;;5098835;27;45265;-73
2022/10/21 09:22:05;;;;;;;;;11.50;11.50;;;;;;;;5099991;27;45230;-72
2022/10/21 09:24:35;;;;;;;;;9.75;9.75;;;;;;;;5101921;27;45444;-73
2022/10/21 09:27:02;;;;;;;;;10.25;10.25;;;;;;;;5100367;27;45336;-71
2022/10/21 09:29:30;;;;;;;;;8.00;8.00;;;;;;;;5096351;27;47022;-72
2022/10/21 09:31:59;;;;;;;;;9.25;9.25;;;;;;;;5097078;27;45375;-70
2022/10/21 09:34:37;;;;;;;;;10.00;10.00;;;;;;;;5097260;27;45325;-72
2022/10/21 09:37:05;;;;;;;;;16.25;16.25;;;;;;;;5096395;27;45583;-71
2022/10/21 09:39:40;;;;;;;;;16.00;16.00;;;;;;;;5096702;27;45600;-71
2022/10/21 09:42:09;;;;;;;;;9.00;9.00;;;;;;;;5096800;27;45329;-73
2022/10/21 09:44:34;;;;;;;;;22.00;22.00;;;;;;;;5096718;27;45210;-71
2022/10/21 09:47:00;;;;;;;;;10.00;10.00;;;;;;;;5099254;27;45495;-71
2022/10/21 09:49:29;;;;;;;;;6.75;6.75;;;;;;;;5099229;27;45321;-71
2022/10/21 09:52:00;;;;;;;;;8.50;8.50;;;;;;;;5097898;27;45387;-73
2022/10/21 09:54:26;;;;;;;;;9.50;9.50;;;;;;;;5097206;27;45322;-70
2022/10/21 09:56:57;;;;;;;;;8.25;8.25;;;;;;;;5097076;27;45408;-72
2022/10/21 09:59:24;;;;;;;;;11.50;10.75;;;;;;;;5096466;27;45410;-70
2022/10/21 10:01:49;;;;;;;;;12.00;12.00;;;;;;;;5094362;27;45282;-70
2022/10/21 10:04:24;;;;;;;;;8.25;8.25;;;;;;;;5097636;27;45503;-71
2022/10/21 10:06:50;;;;;;;;;18.25;18.25;;;;;;;;5097056;27;45392;-71
2022/10/21 10:09:18;;;;;;;;;97.00;95.75;;;;;;;;5097321;27;45306;-71
2022/10/21 10:12:06;;;;;;;;;49.50;41.50;;;;;;;;5097042;27;45465;-70
2022/10/21 10:14:32;;;;;;;;;16.75;16.75;;;;;;;;5089010;27;45309;-71
2022/10/21 10:17:17;;;;;;;;;10.00;10.00;;;;;;;;5095445;27;45387;-71
2022/10/21 10:19:42;;;;;;;;;26.25;26.00;;;;;;;;5094954;27;47071;-72
2022/10/21 10:22:10;;;;;;;;;9.25;9.25;;;;;;;;5095707;27;45312;-71
2022/10/21 10:24:36;;;;;;;;;16.00;16.00;;;;;;;;5096122;27;45234;-71
2022/10/21 10:27:05;;;;;;;;;11.00;11.00;;;;;;;;5094285;27;45291;-71
2022/10/21 10:29:32;;;;;;;;;10.75;10.25;;;;;;;;5095948;27;46195;-74
2022/10/21 10:31:59;;;;;;;;;13.00;12.25;;;;;;;;5096819;27;45200;-70
2022/10/21 10:34:24;;;;;;;;;10.75;10.75;;;;;;;;5094902;27;45335;-71
2022/10/21 10:36:58;;;;;;;;;9.50;9.50;;;;;;;;5096632;27;45622;-72
2022/10/21 10:39:29;;;;;;;;;11.00;11.00;;;;;;;;5095494;27;45227;-73
2022/10/21 10:41:54;;;;;;;;;7.75;7.75;;;;;;;;5095133;27;45343;-73
2022/10/21 10:44:22;;;;;;;;;7.25;7.25;;;;;;;;5096332;27;45396;-70
2022/10/21 10:46:52;;;;;;;;;7.00;7.00;;;;;;;;5093886;27;45483;-70
2022/10/21 10:49:22;;;;;;;;;9.25;9.25;;;;;;;;5093706;27;48409;-72
2022/10/21 10:52:04;;;;;;;;;10.25;10.25;;;;;;;;5094928;27;45304;-72
2022/10/21 10:54:30;;;;;;;;;7.00;7.00;;;;;;;;5095083;27;45339;-71
2022/10/21 10:57:01;;;;;;;;;3.00;3.00;;;;;;;;5095253;27;45305;-72
2022/10/21 10:59:29;;;;;;;;;7.25;7.25;;;;;;;;5095223;27;47407;-71
2022/10/21 11:02:12;;;;;;;;;4.25;4.25;;;;;;;;5095015;27;45350;-69
2022/10/21 11:04:37;;;;;;;;;9.25;9.25;;;;;;;;5095219;27;45252;-69
2022/10/21 11:07:14;;;;;;;;;11.00;11.00;;;;;;;;5095271;27;45297;-72
2022/10/21 11:09:40;;;;;;;;;11.00;11.00;;;;;;;;5095133;27;45455;-70
2022/10/21 11:12:10;;;;;;;;;9.00;9.00;;;;;;;;5095587;27;45290;-71
2022/10/21 11:14:35;;;;;;;;;11.75;11.75;;;;;;;;5103584;27;45251;-71
2022/10/21 11:17:06;;;;;;;;;7.25;7.25;;;;;;;;5101828;27;45384;-71
2022/10/21 11:19:51;;;;;;;;;7.25;7.25;;;;;;;;5097464;27;47423;-70
2022/10/21 11:22:25;;;;;;;;;9.00;9.00;;;;;;;;5098604;27;45388;-73
2022/10/21 11:25:11;;;;;;;;;6.00;6.00;;;;;;;;5099314;27;45489;-70
2022/10/21 11:27:48;;;;;;;;;6.00;6.00;;;;;;;;5099416;27;45307;-72
2022/10/21 11:30:21;;;;;;;;;6.50;6.50;;;;;;;;5098843;27;45283;-73
2022/10/21 11:32:46;;;;;;;;;7.50;7.50;;;;;;;;5098770;27;45412;-73
2022/10/21 11:35:24;;;;;;;;;5.75;5.00;;;;;;;;5097591;27;45302;-72
2022/10/21 11:37:58;;;;;;;;;4.75;4.75;;;;;;;;5099220;27;45202;-70
2022/10/21 11:40:27;;;;;;;;;4.75;4.75;;;;;;;;5098160;27;45274;-70
2022/10/21 11:42:53;;;;;;;;;4.00;4.00;;;;;;;;5098100;27;45321;-72
2022/10/21 11:45:37;;;;;;;;;4.00;4.00;;;;;;;;5098167;27;45400;-71
2022/10/21 11:48:13;;;;;;;;;5.75;5.75;;;;;;;;5099367;27;45211;-72
2022/10/21 11:50:38;;;;;;;;;5.25;5.25;;;;;;;;5098149;27;46811;-73
2022/10/21 11:53:13;;;;;;;;;3.00;3.00;;;;;;;;5098383;27;45390;-72
2022/10/21 11:55:57;;;;;;;;;6.75;6.75;;;;;;;;5097843;27;45354;-71
2022/10/21 11:58:22;;;;;;;;;3.25;3.25;;;;;;;;5098002;27;45553;-70
2022/10/21 12:01:06;;;;;;;;;2.00;2.00;;;;;;;;5097565;27;46276;-71
2022/10/21 12:03:42;;;;;;;;;4.67;4.67;;;;;;;;5097540;27;45230;-70
2022/10/21 12:06:18;;;;;;;;;3.00;3.00;;;;;;;;5096320;27;45474;-72
2022/10/21 12:08:54;;;;;;;;;3.50;3.50;;;;;;;;5097801;27;45476;-72
2022/10/21 12:11:31;;;;;;;;;1.33;1.00;;;;;;;;5097766;27;45595;-72
2022/10/21 12:14:12;;;;;;;;;3.00;3.00;;;;;;;;5097730;27;45433;-71
2022/10/21 12:16:37;;;;;;;;;2.67;2.67;;;;;;;;5098449;27;45428;-73
2022/10/21 12:19:05;;;;;;;;;4.00;4.00;;;;;;;;5098563;27;45623;-73
2022/10/21 12:21:32;;;;;;;;;3.00;3.00;;;;;;;;5097591;27;46269;-73
2022/10/21 12:24:00;;;;;;;;;1.00;1.00;;;;;;;;5097412;27;45544;-70
2022/10/21 12:26:35;;;;;;;;;3.00;3.00;;;;;;;;5096883;27;45270;-70
2022/10/21 12:29:13;;;;;;;;;3.00;3.00;;;;;;;;5097658;27;45579;-71
2022/10/21 12:31:38;;;;;;;;;2.33;2.33;;;;;;;;5097558;27;47242;-70
2022/10/21 12:34:04;;;;;;;;;1.33;1.33;;;;;;;;5097600;27;45557;-70
2022/10/21 12:36:37;;;;;;;;;3.00;3.00;;;;;;;;5096190;27;45397;-72
2022/10/21 12:39:03;;;;;;;;;3.00;3.00;;;;;;;;5099550;27;45509;-73
2022/10/21 12:41:30;;;;;;;;;2.33;2.33;;;;;;;;5103885;27;46047;-71
2022/10/21 12:44:02;;;;;;;;;2.00;2.00;;;;;;;;5098547;27;45405;-73
2022/10/21 12:46:33;;;;;;;;;2.00;2.00;;;;;;;;5096045;27;45321;-70
2022/10/21 12:49:01;;;;;;;;;6.00;6.00;;;;;;;;5097512;27;45532;-71
2022/10/21 12:51:29;;;;;;;;;4.75;4.75;;;;;;;;5096966;27;45280;-72
2022/10/21 12:53:54;;;;;;;;;2.00;2.00;;;;;;;;5097474;27;45355;-72
2022/10/21 12:56:28;;;;;;;;;7.25;6.75;;;;;;;;5098081;27;45346;-73
2022/10/21 12:58:58;;;;;;;;;2.00;2.00;;;;;;;;5101472;27;45347;-70
2022/10/21 13:01:44;;;;;;;;;1.33;1.33;;;;;;;;5098908;27;47241;-71
2022/10/21 13:04:27;;;;;;;;;1.00;1.00;;;;;;;;5095514;27;45375;-71
2022/10/21 13:06:54;;;;;;;;;2.00;2.00;;;;;;;;5097217;27;45319;-71
2022/10/21 13:09:40;;;;;;;;;3.00;3.00;;;;;;;;5097169;27;45219;-69
2022/10/21 13:12:08;;;;;;;;;3.00;3.00;;;;;;;;5096091;27;47461;-70
2022/10/21 13:15:11;;;;;;;;;6.25;4.00;;;;;;;;5096717;27;45370;-71
2022/10/21 13:17:47;;;;;;;;;2.00;2.00;;;;;;;;5017152;28;45269;-70
2022/10/21 13:20:19;;;;;;;;;0.33;0.33;;;;;;;;5033927;28;45672;-71
2022/10/21 13:22:46;;;;;;;;;2.33;1.00;;;;;;;;5068994;27;46327;-69
2022/10/21 13:25:14;;;;;;;;;0.00;0.00;;;;;;;;5096532;27;45349;-71
2022/10/21 13:27:40;;;;;;;;;3.00;3.00;;;;;;;;5098305;27;45337;-72
2022/10/21 13:30:06;;;;;;;;;2.00;2.00;;;;;;;;5098203;27;45528;-70
2022/10/21 13:32:33;;;;;;;;;3.00;3.00;;;;;;;;5094938;27;47727;-71
2022/10/21 13:35:07;;;;;;;;;4.00;0.67;;;;;;;;5096690;27;45211;-71
2022/10/21 13:37:35;;;;;;;;;2.25;2.25;;;;;;;;5096907;27;45396;-71
2022/10/21 13:40:02;;;;;;;;;1.67;1.67;;;;;;;;5098303;27;45168;-70
2022/10/21 13:42:35;;;;;;;;;3.00;3.00;;;;;;;;5097422;27;46575;-71
2022/10/21 13:45:21;;;;;;;;;3.75;3.75;;;;;;;;5096486;27;45341;-69
2022/10/21 13:47:57;;;;;;;;;1.00;1.00;;;;;;;;5064142;27;45578;-70
2022/10/21 13:50:27;;;;;;;;;3.00;3.00;;;;;;;;5097458;27;45210;-71
2022/10/21 13:52:55;;;;;;;;;4.50;3.00;;;;;;;;5096389;27;45363;-72
2022/10/21 13:55:24;;;;;;;;;1.00;1.00;;;;;;;;5096078;27;45197;-71
2022/10/21 13:57:50;;;;;;;;;2.00;2.00;;;;;;;;5094564;27;45474;-70
2022/10/21 14:00:29;;;;;;;;;9.00;8.50;;;;;;;;5096091;27;45449;-72
2022/10/21 14:03:00;;;;;;;;;2.75;2.75;;;;;;;;5095013;27;45267;-70
2022/10/21 14:05:32;;;;;;;;;1.75;1.75;;;;;;;;5096568;27;45412;-72
2022/10/21 14:07:57;;;;;;;;;2.67;2.67;;;;;;;;5104624;27;45311;-73
2022/10/21 14:10:23;;;;;;;;;2.00;2.00;;;;;;;;5096943;27;45277;-70
2022/10/21 14:12:49;;;;;;;;;3.00;3.00;;;;;;;;5096484;27;47112;-73
2022/10/21 14:15:18;;;;;;;;;2.00;2.00;;;;;;;;5096225;27;45302;-69
2022/10/21 14:17:46;;;;;;;;;2.00;2.00;;;;;;;;5096525;27;45303;-71
2022/10/21 14:20:15;;;;;;;;;4.00;3.00;;;;;;;;5094721;27;45375;-72
2022/10/21 14:22:40;;;;;;;;;1.33;1.33;;;;;;;;5095520;27;45345;-70
2022/10/21 14:25:08;;;;;;;;;3.00;3.00;;;;;;;;5095982;27;45354;-72
2022/10/21 14:27:34;;;;;;;;;0.67;0.67;;;;;;;;5095901;27;45278;-72
2022/10/21 14:30:01;;;;;;;;;1.50;1.50;;;;;;;;5095812;27;45653;-69
2022/10/21 14:32:27;;;;;;;;;3.00;3.00;;;;;;;;5095508;27;45273;-70
2022/10/21 14:34:55;;;;;;;;;3.50;3.50;;;;;;;;5095447;27;45238;-70
2022/10/21 14:37:22;;;;;;;;;5.00;5.00;;;;;;;;5095766;27;45451;-71
2022/10/21 14:39:47;;;;;;;;;4.00;4.00;;;;;;;;5095971;27;45456;-72
2022/10/21 14:42:20;;;;;;;;;1.00;1.00;;;;;;;;5095410;27;46462;-69
2022/10/21 14:44:47;;;;;;;;;1.50;1.50;;;;;;;;5099073;27;46099;-71